River Falls, Alabama
Current Conditions -  °F | °C
As of 10:56 PM on Saturday 22 Nov 2014 (Local Time) from K79J Reporting Station
Moderate Rain Moderate Rain  
Wind Chill: 63°   Ceiling: 700
Heat Index: 63°   Visibility: 6mi
Dew Point: 58°   Wind: 13mph
Humidity: 84%   Direction: 120°ESE
Pressure: 30.05"   Gusts: NA
Location:  31.35°N, 86.54°W
Report Text: K79J 230456Z AUTO 12011KT 6SM RA OVC007 17/14 A3005 RMK AO2 CIG 005V011 SLP171 P0012 T01720144 402220078
Loading
Personal Weather Stations






























Interactive Weather Map New forecast layout! Learn more

10-Day Weather Forecast

Advertisements
Track Severe Weather on mobile